Terminal Aerodrome Forecast
Issued by NWS Mobile, AL

Home | Current Version | Previous Version | Text Only | Print | Product List | Glossary On
Versions: 1 2 3 4 5 6 7 8 9 10 11 12 13 14 15 16 17 18 19 20 21 22 23 24 25 26 27 28 29 30 31 32 33 34 35 36 37 38
000
FTUS44 KMOB 051143
TAFPNS
TAF
KPNS 051143Z 0512/0612 36007KT P6SM OVC005
      TEMPO 0512/0514 5SM BR BKN004
     FM051400 03006KT 4SM BR OVC004
     FM051700 07007KT 5SM SHRA BR OVC007
      TEMPO 0520/0524 1SM +TSRA OVC005CB
     FM060000 17012KT 5SM SHRA BR OVC015=

USA.gov is the U.S. government's official web portal to all federal, state and local government web resources and services.